METAR Formatted Surface Weather Observation
Issued by NWS

Home | Current Version | Previous Version | Text Only | Print | Product List | Glossary On
Versions: 1 2 3 4 5 6 7 8 9 10 11 12 13 14 15 16 17 18 19
000
SAUS46 KSEW 220201
MTRSMP
METAR KSMP 220156Z AUTO VRB05KT 10SM CLR 15/09 A3006 RMK AO2 SLP170
T01500094



USA.gov is the U.S. government's official web portal to all federal, state and local government web resources and services.